createdAt,value
2019-06-01T00:00:11.514Z,12.69
2019-06-01T00:01:04.834Z,12.61
2019-06-01T00:02:02.936Z,12.58
2019-06-01T00:03:03.112Z,12.47
2019-06-01T00:04:03.327Z,12.61
2019-06-01T00:05:03.482Z,12.51
2019-06-01T00:06:03.672Z,12.48
2019-06-01T00:07:03.812Z,12.40
2019-06-01T00:08:04.049Z,12.50
2019-06-01T00:09:04.213Z,12.43
2019-06-01T00:10:04.387Z,12.47
2019-06-01T00:11:04.551Z,12.43
2019-06-01T00:12:04.714Z,12.45
2019-06-01T00:13:04.896Z,12.45
2019-06-01T00:14:05.070Z,12.43
2019-06-01T00:15:05.259Z,12.40
2019-06-01T00:16:05.432Z,12.35
2019-06-01T00:17:05.620Z,12.33
2019-06-01T00:18:05.842Z,12.18
2019-06-01T00:19:06.028Z,12.30
2019-06-01T00:20:06.205Z,12.18
2019-06-01T00:21:06.372Z,12.21
2019-06-01T00:22:06.570Z,12.17
2019-06-01T00:23:06.795Z,12.17
2019-06-01T00:24:06.954Z,12.10
2019-06-01T00:25:07.131Z,12.08
2019-06-01T00:26:07.291Z,11.99
2019-06-01T00:27:07.442Z,11.93
2019-06-01T00:28:07.624Z,11.93
2019-06-01T00:29:07.771Z,11.80
2019-06-01T00:30:07.938Z,11.85
2019-06-01T00:31:08.055Z,11.80
2019-06-01T00:32:08.191Z,11.86
2019-06-01T00:33:08.325Z,11.85
2019-06-01T00:34:08.517Z,11.89
2019-06-01T00:35:08.651Z,11.85
2019-06-01T00:36:08.885Z,11.89
2019-06-01T00:37:09.023Z,11.91
2019-06-01T00:38:09.180Z,11.97
2019-06-01T00:39:09.374Z,11.88
2019-06-01T00:40:09.543Z,11.93
2019-06-01T00:41:09.751Z,11.96
2019-06-01T00:42:09.914Z,11.89
2019-06-01T00:43:10.064Z,11.99
2019-06-01T00:44:10.252Z,11.95
2019-06-01T00:45:10.395Z,11.96
2019-06-01T00:46:10.591Z,11.85
2019-06-01T00:47:10.766Z,12.05
2019-06-01T00:48:10.951Z,11.96
2019-06-01T00:49:11.138Z,12.05
2019-06-01T00:50:12.306Z,11.95
2019-06-01T00:51:11.418Z,11.81
2019-06-01T00:52:11.638Z,11.86
2019-06-01T00:53:11.705Z,11.96
2019-06-01T00:54:11.856Z,11.85
2019-06-01T00:55:12.051Z,11.85
2019-06-01T00:56:12.220Z,11.77
2019-06-01T00:57:12.398Z,11.86
2019-06-01T00:58:12.595Z,11.83
2019-06-01T00:59:12.740Z,11.78
2019-06-01T01:00:13.941Z,11.80
2019-06-01T01:01:13.093Z,11.63
2019-06-01T01:02:13.281Z,11.65
2019-06-01T01:03:14.501Z,11.60
2019-06-01T01:04:13.693Z,11.60
2019-06-01T01:05:13.885Z,11.59
2019-06-01T01:06:14.096Z,11.52
2019-06-01T01:07:14.283Z,11.52
2019-06-01T01:08:14.471Z,11.52
2019-06-01T01:09:14.640Z,11.65
2019-06-01T01:10:14.861Z,11.53
2019-06-01T01:11:15.044Z,11.59
2019-06-01T01:12:15.250Z,11.60
2019-06-01T01:13:15.412Z,11.77
2019-06-01T01:14:15.604Z,11.71
2019-06-01T01:15:15.841Z,11.58
2019-06-01T01:16:16.006Z,11.55
2019-06-01T01:17:16.202Z,11.55
2019-06-01T01:18:16.395Z,11.43
2019-06-01T01:19:16.565Z,11.41
2019-06-01T01:20:16.743Z,11.40
2019-06-01T01:21:16.917Z,11.34
2019-06-01T01:22:17.115Z,11.33
2019-06-01T01:23:17.321Z,11.43
2019-06-01T01:24:17.514Z,11.51
2019-06-01T01:25:17.709Z,11.59
2019-06-01T01:26:17.937Z,11.58
2019-06-01T01:27:18.091Z,11.52
2019-06-01T01:28:18.275Z,11.45
2019-06-01T01:29:18.449Z,11.44
2019-06-01T01:30:18.601Z,11.53
2019-06-01T01:31:18.767Z,11.49
2019-06-01T01:32:18.922Z,11.40
2019-06-01T01:33:19.079Z,11.45
2019-06-01T01:34:19.275Z,11.40
2019-06-01T01:35:19.457Z,11.38
2019-06-01T01:36:19.619Z,11.30
2019-06-01T01:37:19.757Z,11.40
2019-06-01T01:38:19.942Z,11.33
2019-06-01T01:39:20.097Z,11.25
2019-06-01T01:40:20.275Z,11.34
2019-06-01T01:41:20.469Z,11.40
2019-06-01T01:42:20.638Z,11.38
2019-06-01T01:43:21.795Z,11.43
2019-06-01T01:44:20.933Z,11.38
2019-06-01T01:45:22.104Z,11.49
2019-06-01T01:46:21.256Z,11.33
2019-06-01T01:47:21.443Z,11.38
2019-06-01T01:48:21.600Z,11.40
2019-06-01T01:49:21.745Z,11.25
2019-06-01T01:50:21.912Z,11.26
2019-06-01T01:51:22.049Z,11.22
2019-06-01T01:52:22.233Z,11.30
2019-06-01T01:53:22.393Z,11.30
2019-06-01T01:54:22.554Z,11.38
2019-06-01T01:55:22.738Z,11.34
2019-06-01T01:56:22.961Z,11.43
2019-06-01T01:57:23.149Z,11.30
2019-06-01T01:58:23.296Z,11.26
2019-06-01T01:59:43.337Z,11.25
2019-06-01T02:00:23.619Z,11.23
2019-06-01T02:01:23.781Z,11.23
2019-06-01T02:02:23.949Z,11.08
2019-06-01T02:03:24.127Z,11.07
2019-06-01T02:04:24.298Z,10.98
2019-06-01T02:05:24.459Z,11.07
2019-06-01T02:06:24.620Z,11.02
2019-06-01T02:07:24.810Z,11.07
2019-06-01T02:08:25.006Z,11.08
2019-06-01T02:09:25.179Z,11.05
2019-06-01T02:10:25.362Z,11.07
2019-06-01T02:11:25.518Z,11.02
2019-06-01T02:12:25.697Z,11.10
2019-06-01T02:13:25.852Z,11.01
2019-06-01T02:14:26.000Z,11.15
2019-06-01T02:15:26.140Z,11.12
2019-06-01T02:16:26.288Z,11.13
2019-06-01T02:17:26.466Z,11.10
2019-06-01T02:18:26.621Z,11.07
2019-06-01T02:19:26.756Z,11.12
2019-06-01T02:20:26.900Z,11.08
2019-06-01T02:21:27.034Z,11.10
2019-06-01T02:22:27.228Z,11.04
2019-06-01T02:23:27.395Z,11.02
2019-06-01T02:24:27.592Z,10.97
2019-06-01T02:25:27.730Z,10.95
2019-06-01T02:26:27.904Z,10.94
2019-06-01T02:27:28.043Z,10.79
2019-06-01T02:28:28.232Z,10.89
2019-06-01T02:29:28.396Z,10.82
2019-06-01T02:30:28.557Z,10.75
2019-06-01T02:31:40.944Z,10.79
2019-06-01T02:32:30.826Z,10.75
2019-06-01T02:33:28.969Z,10.86
2019-06-01T02:34:29.146Z,10.87
2019-06-01T02:35:29.334Z,10.87
2019-06-01T02:36:29.486Z,10.84
2019-06-01T02:37:29.669Z,10.89
2019-06-01T02:38:29.889Z,10.83
2019-06-01T02:39:30.064Z,10.95
2019-06-01T02:40:30.238Z,10.83
2019-06-01T02:41:30.420Z,10.84
2019-06-01T02:42:30.605Z,10.87
2019-06-01T02:43:30.849Z,10.77
2019-06-01T02:44:31.044Z,10.82
2019-06-01T02:45:31.231Z,10.75
2019-06-01T02:46:35.611Z,10.62
2019-06-01T02:47:32.582Z,10.71
2019-06-01T02:48:31.717Z,10.67
2019-06-01T02:49:31.875Z,10.62
2019-06-01T02:50:32.048Z,10.61
2019-06-01T02:51:32.262Z,10.59
2019-06-01T02:52:32.433Z,10.59
2019-06-01T02:53:32.635Z,10.59
2019-06-01T02:54:32.842Z,10.72
2019-06-01T02:55:33.022Z,10.76
2019-06-01T02:56:33.239Z,10.71
2019-06-01T02:57:33.402Z,10.77
2019-06-01T02:58:33.571Z,10.79
2019-06-01T02:59:33.767Z,10.82
2019-06-01T03:00:33.934Z,10.75
2019-06-01T03:01:34.125Z,10.82
2019-06-01T03:02:34.277Z,10.83
2019-06-01T03:03:34.484Z,10.84
2019-06-01T03:04:34.651Z,10.79
2019-06-01T03:05:34.849Z,10.83
2019-06-01T03:06:34.994Z,10.87
2019-06-01T03:07:35.157Z,10.84
2019-06-01T03:08:35.334Z,10.82
2019-06-01T03:09:35.538Z,10.82
2019-06-01T03:10:35.734Z,10.80
2019-06-01T03:11:35.888Z,10.87
2019-06-01T03:12:36.068Z,10.83
2019-06-01T03:13:36.240Z,10.69
2019-06-01T03:14:36.413Z,10.79
2019-06-01T03:15:36.580Z,10.64
2019-06-01T03:16:39.963Z,10.76
2019-06-01T03:17:36.992Z,10.75
2019-06-01T03:18:37.193Z,10.77
2019-06-01T03:19:37.370Z,10.79
2019-06-01T03:20:37.545Z,10.72
2019-06-01T03:21:37.711Z,10.72
2019-06-01T03:22:37.887Z,10.69
2019-06-01T03:23:38.036Z,10.61
2019-06-01T03:24:38.223Z,10.59
2019-06-01T03:25:38.354Z,10.58
2019-06-01T03:26:38.491Z,10.51
2019-06-01T03:27:38.695Z,10.64
2019-06-01T03:28:38.849Z,10.65
2019-06-01T03:29:38.997Z,10.69
2019-06-01T03:30:39.173Z,10.61
2019-06-01T03:31:39.339Z,10.61
2019-06-01T03:32:39.522Z,10.67
2019-06-01T03:33:39.676Z,10.68
2019-06-01T03:34:39.825Z,10.59
2019-06-01T03:35:39.985Z,10.61
2019-06-01T03:36:40.151Z,10.64
2019-06-01T03:37:40.303Z,10.62
2019-06-01T03:38:40.459Z,10.65
2019-06-01T03:39:40.594Z,10.72
2019-06-01T03:40:40.759Z,10.67
2019-06-01T03:41:40.941Z,10.72
2019-06-01T03:42:41.118Z,10.79
2019-06-01T03:43:41.274Z,10.69
2019-06-01T03:44:41.433Z,10.71
2019-06-01T03:45:41.970Z,10.84
2019-06-01T03:46:41.747Z,10.75
2019-06-01T03:47:41.939Z,10.83
2019-06-01T03:48:42.116Z,10.80
2019-06-01T03:49:42.289Z,10.72
2019-06-01T03:50:42.494Z,10.69
2019-06-01T03:51:42.677Z,10.80
2019-06-01T03:52:42.879Z,10.76
2019-06-01T03:53:43.054Z,10.76
2019-06-01T03:54:43.289Z,10.72
2019-06-01T03:55:43.427Z,10.77
2019-06-01T03:56:43.568Z,10.77
2019-06-01T03:57:43.814Z,10.82
2019-06-01T03:58:43.857Z,10.82
2019-06-01T03:59:43.987Z,10.90
2019-06-01T04:00:45.129Z,10.77
2019-06-01T04:01:47.143Z,10.76
2019-06-01T04:02:45.577Z,10.77
2019-06-01T04:03:44.709Z,10.80
2019-06-01T04:04:44.855Z,10.80
2019-06-01T04:05:45.021Z,10.89
2019-06-01T04:07:06.398Z,10.82
2019-06-01T04:07:45.356Z,10.86
2019-06-01T04:08:45.516Z,11.00
2019-06-01T04:09:45.655Z,10.94
2019-06-01T04:10:45.834Z,11.04
2019-06-01T04:11:45.966Z,11.18
2019-06-01T04:12:46.135Z,11.30
2019-06-01T04:13:46.283Z,11.37
2019-06-01T04:14:46.486Z,11.43
2019-06-01T04:15:46.617Z,11.41
2019-06-01T04:16:46.758Z,11.44
2019-06-01T04:17:46.918Z,11.48
2019-06-01T04:18:47.088Z,11.56
2019-06-01T04:19:47.238Z,11.67
2019-06-01T04:20:47.389Z,11.63
2019-06-01T04:21:47.578Z,11.68
2019-06-01T04:22:47.787Z,11.74
2019-06-01T04:23:47.968Z,11.81
2019-06-01T04:24:48.124Z,11.89
2019-06-01T04:25:48.272Z,11.95
2019-06-01T04:26:48.427Z,11.91
2019-06-01T04:27:48.609Z,11.93
2019-06-01T04:28:48.760Z,11.95
2019-06-01T04:29:48.956Z,11.85
2019-06-01T04:30:49.113Z,11.80
2019-06-01T04:31:49.256Z,11.88
2019-06-01T04:32:50.593Z,11.83
2019-06-01T04:33:50.537Z,11.80
2019-06-01T04:34:49.691Z,11.83
2019-06-01T04:35:49.829Z,11.95
2019-06-01T04:36:49.970Z,11.81
2019-06-01T04:37:50.146Z,11.81
2019-06-01T04:38:50.303Z,11.71
2019-06-01T04:39:50.490Z,11.78
2019-06-01T04:40:50.613Z,11.80
2019-06-01T04:41:50.750Z,11.76
2019-06-01T04:42:50.936Z,11.95
2019-06-01T04:43:51.112Z,12.03
2019-06-01T04:44:51.294Z,12.07
2019-06-01T04:45:51.464Z,12.12
2019-06-01T04:46:51.615Z,12.26
2019-06-01T04:47:51.740Z,12.29
2019-06-01T04:48:51.899Z,12.28
2019-06-01T04:49:52.057Z,12.40
2019-06-01T04:50:52.198Z,12.44
2019-06-01T04:51:52.378Z,12.51
2019-06-01T04:52:52.527Z,12.57
2019-06-01T04:53:52.710Z,12.63
2019-06-01T04:54:52.905Z,12.63
2019-06-01T04:55:53.106Z,12.66
2019-06-01T04:56:53.300Z,12.66
2019-06-01T04:57:53.457Z,12.66
2019-06-01T04:58:53.680Z,12.76
2019-06-01T04:59:53.892Z,12.87
2019-06-01T05:00:54.105Z,12.83
2019-06-01T05:01:54.272Z,12.94
2019-06-01T05:03:04.891Z,12.95
2019-06-01T05:03:56.621Z,13.06
2019-06-01T05:04:54.858Z,13.11
2019-06-01T05:05:55.047Z,13.20
2019-06-01T05:06:55.237Z,13.20
2019-06-01T05:07:55.426Z,13.30
2019-06-01T05:08:55.599Z,13.42
2019-06-01T05:09:55.763Z,13.42
2019-06-01T05:10:55.946Z,13.52
2019-06-01T05:11:56.094Z,13.54
2019-06-01T05:12:56.242Z,13.52
2019-06-01T05:13:56.404Z,13.54
2019-06-01T05:14:56.582Z,13.58
2019-06-01T05:15:56.810Z,13.64
2019-06-01T05:16:56.963Z,13.68
2019-06-01T05:17:57.132Z,13.62
2019-06-01T05:18:57.314Z,13.57
2019-06-01T05:19:57.541Z,13.68
2019-06-01T05:20:57.738Z,13.68
2019-06-01T05:21:57.966Z,13.75
2019-06-01T05:22:58.162Z,13.78
2019-06-01T05:23:58.341Z,13.68
2019-06-01T05:24:58.526Z,13.73
2019-06-01T05:25:58.712Z,13.83
2019-06-01T05:26:58.926Z,13.87
2019-06-01T05:27:59.138Z,13.98
2019-06-01T05:28:59.407Z,14.03
2019-06-01T05:29:59.466Z,14.05
2019-06-01T05:30:59.678Z,14.01
2019-06-01T05:31:59.938Z,14.11
2019-06-01T05:33:00.023Z,14.08
2019-06-01T05:34:00.233Z,14.11
2019-06-01T05:35:00.429Z,14.08
2019-06-01T05:36:00.615Z,14.12
2019-06-01T05:37:00.830Z,14.22
2019-06-01T05:38:01.035Z,14.26
2019-06-01T05:39:01.204Z,14.30
2019-06-01T05:40:01.384Z,14.34
2019-06-01T05:41:01.577Z,14.34
2019-06-01T05:42:01.823Z,14.34
2019-06-01T05:43:01.892Z,14.38
2019-06-01T05:44:02.081Z,14.38
2019-06-01T05:45:02.275Z,14.38
2019-06-01T05:46:02.452Z,14.48
2019-06-01T05:47:02.671Z,14.49
2019-06-01T05:48:02.801Z,14.37
2019-06-01T05:49:02.889Z,14.58
2019-06-01T05:50:03.071Z,14.59
2019-06-01T05:51:03.237Z,14.58
2019-06-01T05:52:03.415Z,14.66
2019-06-01T05:53:03.648Z,14.67
2019-06-01T05:54:03.735Z,14.74
2019-06-01T05:55:03.935Z,14.86
2019-06-01T05:56:04.139Z,14.94
2019-06-01T05:57:04.317Z,14.86
2019-06-01T05:58:04.533Z,15.05
2019-06-01T05:59:04.715Z,15.07
2019-06-01T06:00:04.872Z,15.05
2019-06-01T06:01:05.044Z,15.02
2019-06-01T06:02:05.230Z,15.07
2019-06-01T06:03:05.458Z,15.22
2019-06-01T06:04:05.591Z,15.17
2019-06-01T06:05:05.762Z,15.30
2019-06-01T06:06:05.929Z,15.32
2019-06-01T06:07:27.098Z,15.33
2019-06-01T06:08:06.266Z,15.45
2019-06-01T06:09:06.437Z,15.50
2019-06-01T06:10:06.613Z,15.50
2019-06-01T06:11:06.762Z,15.51
2019-06-01T06:12:06.952Z,15.47
2019-06-01T06:13:07.197Z,15.59
2019-06-01T06:14:07.387Z,15.70
2019-06-01T06:15:07.559Z,15.81
2019-06-01T06:16:07.734Z,15.81
2019-06-01T06:17:07.890Z,15.85
2019-06-01T06:18:08.055Z,15.99
2019-06-01T06:19:08.256Z,16.09
2019-06-01T06:20:08.466Z,16.25
2019-06-01T06:21:08.646Z,16.34
2019-06-01T06:22:08.803Z,16.41
2019-06-01T06:23:08.973Z,16.41
2019-06-01T06:24:09.169Z,16.47
2019-06-01T06:25:09.347Z,16.61
2019-06-01T06:26:09.548Z,16.65
2019-06-01T06:27:09.726Z,16.68
2019-06-01T06:28:09.885Z,16.80
2019-06-01T06:29:10.075Z,16.68
2019-06-01T06:30:10.237Z,16.76
2019-06-01T06:31:10.415Z,16.74
2019-06-01T06:32:10.596Z,16.87
2019-06-01T06:33:10.776Z,17.10
2019-06-01T06:34:10.987Z,17.09
2019-06-01T06:35:11.189Z,17.20
2019-06-01T06:36:11.352Z,17.38
2019-06-01T06:37:11.517Z,17.39
2019-06-01T06:38:11.855Z,17.37
2019-06-01T06:39:11.886Z,17.30
2019-06-01T06:40:12.104Z,17.30
2019-06-01T06:41:12.290Z,17.23
2019-06-01T06:42:12.491Z,17.35
2019-06-01T06:43:22.329Z,17.35
2019-06-01T06:44:14.819Z,17.39
2019-06-01T06:45:13.034Z,17.38
2019-06-01T06:46:13.112Z,17.35
2019-06-01T06:47:13.296Z,17.34
2019-06-01T06:48:14.863Z,17.37
2019-06-01T06:49:14.919Z,17.41
2019-06-01T06:50:14.919Z,17.44
2019-06-01T06:51:15.192Z,17.53
2019-06-01T06:52:15.384Z,17.52
2019-06-01T06:53:25.291Z,17.56
2019-06-01T06:54:17.606Z,17.57
2019-06-01T06:55:15.716Z,17.54
2019-06-01T06:56:15.699Z,17.66
2019-06-01T06:57:15.985Z,17.76
2019-06-01T06:58:15.967Z,17.80
2019-06-01T06:59:16.195Z,17.79
2019-06-01T07:00:16.387Z,17.76
2019-06-01T07:01:16.957Z,17.87
2019-06-01T07:02:16.743Z,17.87
2019-06-01T07:03:16.884Z,18.00
2019-06-01T07:04:17.058Z,18.03
2019-06-01T07:05:17.445Z,17.98
2019-06-01T07:06:17.337Z,18.06
2019-06-01T07:07:17.613Z,18.19
2019-06-01T07:08:19.720Z,18.12
2019-06-01T07:09:17.894Z,18.24
2019-06-01T07:10:18.016Z,18.34
2019-06-01T07:11:19.061Z,18.28
2019-06-01T07:12:19.133Z,18.43
2019-06-01T07:13:19.188Z,18.42
2019-06-01T07:14:19.319Z,18.45
2019-06-01T07:15:19.661Z,18.45
2019-06-01T07:16:19.303Z,18.63
2019-06-01T07:17:19.492Z,18.70
2019-06-01T07:18:21.434Z,18.76
2019-06-01T07:19:19.559Z,18.89
2019-06-01T07:20:21.471Z,18.96
2019-06-01T07:21:19.784Z,19.15
2019-06-01T07:22:21.720Z,19.05
2019-06-01T07:23:23.882Z,19.15
2019-06-01T07:24:21.747Z,19.12
2019-06-01T07:25:21.810Z,19.20
2019-06-01T07:26:21.897Z,19.29
